KILN

Wilmington Airpark

Wilmington, Ohio, USA
METAR KILN 151554Z AUTO 03008KT 1 1/4SM -RA BR OVC006 08/07 A2995 RMK AO2 RAB25 SLP154 P0002 T00830072
Observed Flight Rules
Dec-15 @ 15:54 UTC (28 minutes ago) Instrument Flight Rules
Wind Visibility Clouds Conditions
30° at 8 knots 1 1/4 miles
  • Overcast at 600' AGL
  • Light Rain
  • Mist
Temperatures Readings Precipitation
Current 8°C / 46°F
Dewpoint 7°C / 45°F
Humidity 93%
Altimeter 29.95" Hg
Pressure 1015.4 hPa
Elevation 322
Current Rain 0.02
METAR KILN 151554Z AUTO 03008KT 1 1/4SM -RA BR OVC006 08/07 A2995 RMK AO2 RAB25 SLP154 P0002 T00830072
Observed Flight Rules
Dec-15 @ 15:54 UTC
(28 minutes ago)
IFR
Wind Visibility
30° at 8 knots 1 1/4 miles
Clouds
  • Overcast at 600' AGL
Conditions
  • Light Rain
  • Mist
Temperature Dewpoint
8°C / 46°F 7°C / 45°F
Humidity Altimeter Pressure
93% 29.95" Hg 1015.4 hPa
Current Rain
0.02